sensor_id;sensor_type;location;lat;lon;timestamp;pressure;altitude;pressure_sealevel;temperature;humidity
68822;BME280;55834;50.870;4.606;2023-04-27T00:00:21;101315.88;;;6.64;43.77
68822;BME280;55834;50.870;4.606;2023-04-27T00:02:46;101309.75;;;6.59;43.68
68822;BME280;55834;50.870;4.606;2023-04-27T00:05:11;101310.66;;;6.49;43.47
68822;BME280;55834;50.870;4.606;2023-04-27T00:07:37;101312.38;;;6.51;43.81
68822;BME280;55834;50.870;4.606;2023-04-27T00:10:03;101306.28;;;6.45;43.59
68822;BME280;55834;50.870;4.606;2023-04-27T00:12:28;101306.28;;;6.42;43.39
68822;BME280;55834;50.870;4.606;2023-04-27T00:14:54;101308.09;;;6.29;42.59
68822;BME280;55834;50.870;4.606;2023-04-27T00:17:19;101308.06;;;6.30;43.89
68822;BME280;55834;50.870;4.606;2023-04-27T00:19:45;101302.84;;;6.10;43.36
68822;BME280;55834;50.870;4.606;2023-04-27T00:22:11;101301.97;;;5.87;44.01
68822;BME280;55834;50.870;4.606;2023-04-27T00:24:38;101301.97;;;5.52;46.11
68822;BME280;55834;50.870;4.606;2023-04-27T00:27:03;101294.09;;;5.64;46.25
68822;BME280;55834;50.870;4.606;2023-04-27T00:29:29;101298.50;;;5.74;45.74
68822;BME280;55834;50.870;4.606;2023-04-27T00:31:54;101290.63;;;5.83;45.03
68822;BME280;55834;50.870;4.606;2023-04-27T00:34:20;101299.34;;;5.90;44.38
68822;BME280;55834;50.870;4.606;2023-04-27T00:36:45;101293.25;;;5.96;45.09
68822;BME280;55834;50.870;4.606;2023-04-27T00:39:11;101294.13;;;5.90;44.77
68822;BME280;55834;50.870;4.606;2023-04-27T00:41:37;101294.09;;;5.70;44.82
68822;BME280;55834;50.870;4.606;2023-04-27T00:44:04;101300.22;;;5.60;44.61
68822;BME280;55834;50.870;4.606;2023-04-27T00:46:29;101295.88;;;5.77;45.20
68822;BME280;55834;50.870;4.606;2023-04-27T00:48:55;101299.38;;;5.88;44.46
68822;BME280;55834;50.870;4.606;2023-04-27T00:51:21;101302.00;;;5.95;45.08
68822;BME280;55834;50.870;4.606;2023-04-27T00:53:48;101294.13;;;5.69;44.94
68822;BME280;55834;50.870;4.606;2023-04-27T00:56:15;101296.75;;;5.56;45.83
68822;BME280;55834;50.870;4.606;2023-04-27T00:58:41;101294.97;;;5.64;45.91
68822;BME280;55834;50.870;4.606;2023-04-27T01:01:06;101295.00;;;5.71;45.02
68822;BME280;55834;50.870;4.606;2023-04-27T01:03:33;101295.84;;;5.45;45.25
68822;BME280;55834;50.870;4.606;2023-04-27T01:05:59;101300.16;;;5.25;46.10
68822;BME280;55834;50.870;4.606;2023-04-27T01:08:26;101297.50;;;5.15;46.49
68822;BME280;55834;50.870;4.606;2023-04-27T01:10:52;101294.06;;;5.26;46.32
68822;BME280;55834;50.870;4.606;2023-04-27T01:13:17;101295.44;;;4.44;47.61
68822;BME280;55834;50.870;4.606;2023-04-27T01:15:43;101300.41;;;4.08;48.84
68822;BME280;55834;50.870;4.606;2023-04-27T01:18:08;101297.22;;;4.56;48.21
68822;BME280;55834;50.870;4.606;2023-04-27T01:20:34;101288.66;;;4.92;48.33
68822;BME280;55834;50.870;4.606;2023-04-27T01:23:00;101292.09;;;4.72;48.91
68822;BME280;55834;50.870;4.606;2023-04-27T01:25:26;101291.31;;;4.98;46.88
68822;BME280;55834;50.870;4.606;2023-04-27T01:27:51;101285.09;;;4.67;48.32
68822;BME280;55834;50.870;4.606;2023-04-27T01:30:18;101289.47;;;4.74;48.44
68822;BME280;55834;50.870;4.606;2023-04-27T01:32:43;101281.72;;;4.97;47.69
68822;BME280;55834;50.870;4.606;2023-04-27T01:35:09;101282.34;;;4.41;49.12
68822;BME280;55834;50.870;4.606;2023-04-27T01:37:35;101281.66;;;4.83;48.16
68822;BME280;55834;50.870;4.606;2023-04-27T01:40:01;101284.63;;;3.95;49.07
68822;BME280;55834;50.870;4.606;2023-04-27T01:42:26;101269.38;;;4.68;48.01
68822;BME280;55834;50.870;4.606;2023-04-27T01:44:51;101273.78;;;4.80;48.23
68822;BME280;55834;50.870;4.606;2023-04-27T01:47:17;101269.50;;;4.94;48.17
68822;BME280;55834;50.870;4.606;2023-04-27T01:49:43;101272.09;;;4.91;48.23
68822;BME280;55834;50.870;4.606;2023-04-27T01:52:08;101275.69;;;5.07;47.08
68822;BME280;55834;50.870;4.606;2023-04-27T01:54:33;101272.22;;;5.27;46.92
68822;BME280;55834;50.870;4.606;2023-04-27T01:56:59;101275.59;;;4.98;48.39
68822;BME280;55834;50.870;4.606;2023-04-27T01:59:26;101261.75;;;5.20;47.12
68822;BME280;55834;50.870;4.606;2023-04-27T02:01:52;101266.16;;;5.43;47.44
68822;BME280;55834;50.870;4.606;2023-04-27T02:04:17;101262.66;;;5.52;46.77
68822;BME280;55834;50.870;4.606;2023-04-27T02:06:43;101265.22;;;5.15;46.65
68822;BME280;55834;50.870;4.606;2023-04-27T02:09:08;101260.81;;;5.05;47.42
68822;BME280;55834;50.870;4.606;2023-04-27T02:11:34;101271.34;;;5.14;47.54
68822;BME280;55834;50.870;4.606;2023-04-27T02:13:59;101269.59;;;5.16;46.73
68822;BME280;55834;50.870;4.606;2023-04-27T02:16:25;101274.47;;;4.38;49.08
68822;BME280;55834;50.870;4.606;2023-04-27T02:18:50;101275.97;;;3.97;51.12
68822;BME280;55834;50.870;4.606;2023-04-27T02:21:17;101269.19;;;4.30;49.92
68822;BME280;55834;50.870;4.606;2023-04-27T02:23:43;101269.44;;;4.76;48.87
68822;BME280;55834;50.870;4.606;2023-04-27T02:26:15;101256.34;;;4.81;48.41
68822;BME280;55834;50.870;4.606;2023-04-27T02:28:41;101256.41;;;4.93;48.44
68822;BME280;55834;50.870;4.606;2023-04-27T02:31:06;101256.38;;;4.82;48.29
68822;BME280;55834;50.870;4.606;2023-04-27T02:33:31;101258.91;;;4.65;48.76
68822;BME280;55834;50.870;4.606;2023-04-27T02:35:57;101255.50;;;4.79;48.26
68822;BME280;55834;50.870;4.606;2023-04-27T02:38:22;101255.41;;;4.66;48.76
68822;BME280;55834;50.870;4.606;2023-04-27T02:40:52;101261.59;;;4.82;48.32
68822;BME280;55834;50.870;4.606;2023-04-27T02:43:17;101258.16;;;4.95;47.67
68822;BME280;55834;50.870;4.606;2023-04-27T02:45:43;101263.34;;;4.89;48.84
68822;BME280;55834;50.870;4.606;2023-04-27T02:48:08;101257.19;;;4.72;48.73
68822;BME280;55834;50.870;4.606;2023-04-27T02:50:39;101259.78;;;4.69;49.06
68822;BME280;55834;50.870;4.606;2023-04-27T02:53:04;101269.28;;;4.44;49.66
68822;BME280;55834;50.870;4.606;2023-04-27T02:55:30;101270.09;;;4.35;50.02
68822;BME280;55834;50.870;4.606;2023-04-27T02:57:55;101274.81;;;3.63;51.25
68822;BME280;55834;50.870;4.606;2023-04-27T03:00:21;101271.19;;;3.50;52.83
68822;BME280;55834;50.870;4.606;2023-04-27T03:02:47;101275.06;;;3.95;51.20
68822;BME280;55834;50.870;4.606;2023-04-27T03:05:12;101271.38;;;3.72;51.14
68822;BME280;55834;50.870;4.606;2023-04-27T03:07:37;101267.03;;;3.72;51.47
68822;BME280;55834;50.870;4.606;2023-04-27T03:10:03;101272.22;;;3.66;50.77
68822;BME280;55834;50.870;4.606;2023-04-27T03:12:29;101272.91;;;3.47;52.22
68822;BME280;55834;50.870;4.606;2023-04-27T03:14:54;101261.25;;;3.14;53.31
68822;BME280;55834;50.870;4.606;2023-04-27T03:17:20;101263.19;;;3.32;52.74
68822;BME280;55834;50.870;4.606;2023-04-27T03:19:46;101272.44;;;3.95;51.90
68822;BME280;55834;50.870;4.606;2023-04-27T03:22:13;101264.75;;;4.15;50.81
68822;BME280;55834;50.870;4.606;2023-04-27T03:24:38;101274.41;;;4.30;50.00
68822;BME280;55834;50.870;4.606;2023-04-27T03:27:04;101279.63;;;4.27;49.67
68822;BME280;55834;50.870;4.606;2023-04-27T03:29:29;101283.97;;;4.28;48.53
68822;BME280;55834;50.870;4.606;2023-04-27T03:31:55;101283.97;;;4.28;49.34
68822;BME280;55834;50.870;4.606;2023-04-27T03:34:21;101289.19;;;4.20;49.12
68822;BME280;55834;50.870;4.606;2023-04-27T03:36:48;101286.34;;;3.93;50.73
68822;BME280;55834;50.870;4.606;2023-04-27T03:39:13;101282.97;;;3.16;52.04
68822;BME280;55834;50.870;4.606;2023-04-27T03:41:38;101285.72;;;3.22;53.88
68822;BME280;55834;50.870;4.606;2023-04-27T03:44:04;101284.75;;;3.17;52.96
68822;BME280;55834;50.870;4.606;2023-04-27T03:46:30;101281.59;;;3.46;51.88
68822;BME280;55834;50.870;4.606;2023-04-27T03:48:55;101282.69;;;3.71;52.45
68822;BME280;55834;50.870;4.606;2023-04-27T03:51:21;101279.19;;;3.66;51.81
68822;BME280;55834;50.870;4.606;2023-04-27T03:53:46;101281.06;;;3.83;50.88
68822;BME280;55834;50.870;4.606;2023-04-27T03:56:11;101286.06;;;3.57;51.84
68822;BME280;55834;50.870;4.606;2023-04-27T03:58:37;101285.34;;;3.75;52.44
68822;BME280;55834;50.870;4.606;2023-04-27T04:01:02;101289.25;;;3.30;52.48
68822;BME280;55834;50.870;4.606;2023-04-27T04:03:28;101288.78;;;3.70;51.85
68822;BME280;55834;50.870;4.606;2023-04-27T04:05:53;101292.28;;;2.91;53.39
68822;BME280;55834;50.870;4.606;2023-04-27T04:08:18;101287.75;;;3.51;51.97
68822;BME280;55834;50.870;4.606;2023-04-27T04:10:44;101295.00;;;3.84;52.13
68822;BME280;55834;50.870;4.606;2023-04-27T04:13:09;101290.84;;;4.09;50.42
68822;BME280;55834;50.870;4.606;2023-04-27T04:15:35;101297.03;;;4.25;49.38
68822;BME280;55834;50.870;4.606;2023-04-27T04:18:00;101285.78;;;4.32;49.46
68822;BME280;55834;50.870;4.606;2023-04-27T04:20:26;101284.75;;;4.10;49.00
68822;BME280;55834;50.870;4.606;2023-04-27T04:22:51;101299.13;;;3.62;51.06
68822;BME280;55834;50.870;4.606;2023-04-27T04:25:16;101303.72;;;3.88;50.99
68822;BME280;55834;50.870;4.606;2023-04-27T04:27:42;101297.84;;;4.12;51.03
68822;BME280;55834;50.870;4.606;2023-04-27T04:30:09;101290.84;;;4.14;50.32
68822;BME280;55834;50.870;4.606;2023-04-27T04:32:34;101296.91;;;4.06;50.35
68822;BME280;55834;50.870;4.606;2023-04-27T04:35:05;101292.50;;;4.02;50.23
68822;BME280;55834;50.870;4.606;2023-04-27T04:37:33;101288.31;;;4.21;50.74
68822;BME280;55834;50.870;4.606;2023-04-27T04:40:06;101294.41;;;4.25;50.06
68822;BME280;55834;50.870;4.606;2023-04-27T04:42:35;101300.06;;;3.67;51.18
68822;BME280;55834;50.870;4.606;2023-04-27T04:45:04;101298.31;;;3.66;52.64
68822;BME280;55834;50.870;4.606;2023-04-27T04:47:30;101303.69;;;3.81;50.93
68822;BME280;55834;50.870;4.606;2023-04-27T04:49:57;101305.63;;;4.07;51.45
68822;BME280;55834;50.870;4.606;2023-04-27T04:52:22;101297.03;;;4.23;50.73
68822;BME280;55834;50.870;4.606;2023-04-27T04:54:50;101295.38;;;4.36;50.59
68822;BME280;55834;50.870;4.606;2023-04-27T04:57:17;101297.16;;;4.45;49.79
68822;BME280;55834;50.870;4.606;2023-04-27T04:59:42;101302.38;;;4.39;49.27
68822;BME280;55834;50.870;4.606;2023-04-27T05:02:07;101307.63;;;4.45;49.95
68822;BME280;55834;50.870;4.606;2023-04-27T05:04:33;101301.59;;;4.57;49.75
68822;BME280;55834;50.870;4.606;2023-04-27T05:06:58;101311.06;;;4.36;49.93
68822;BME280;55834;50.870;4.606;2023-04-27T05:09:24;101315.53;;;4.56;50.92
68822;BME280;55834;50.870;4.606;2023-04-27T05:11:50;101310.38;;;4.69;50.09
68822;BME280;55834;50.870;4.606;2023-04-27T05:14:15;101317.41;;;4.81;49.96
68822;BME280;55834;50.870;4.606;2023-04-27T05:16:40;101305.28;;;4.95;49.35
68822;BME280;55834;50.870;4.606;2023-04-27T05:19:06;101303.53;;;5.01;49.36
68822;BME280;55834;50.870;4.606;2023-04-27T05:21:32;101310.59;;;5.08;49.58
68822;BME280;55834;50.870;4.606;2023-04-27T05:23:58;101314.13;;;5.22;48.90
68822;BME280;55834;50.870;4.606;2023-04-27T05:26:25;101318.50;;;5.41;49.04
68822;BME280;55834;50.870;4.606;2023-04-27T05:28:50;101317.69;;;5.70;48.90
68822;BME280;55834;50.870;4.606;2023-04-27T05:31:15;101318.59;;;5.97;48.37
68822;BME280;55834;50.870;4.606;2023-04-27T05:33:41;101323.81;;;6.21;48.06
68822;BME280;55834;50.870;4.606;2023-04-27T05:36:06;101327.31;;;6.22;47.04
68822;BME280;55834;50.870;4.606;2023-04-27T05:38:32;101323.78;;;6.43;47.45
68822;BME280;55834;50.870;4.606;2023-04-27T05:40:59;101316.75;;;6.63;47.07
68822;BME280;55834;50.870;4.606;2023-04-27T05:43:25;101314.97;;;6.87;47.06
68822;BME280;55834;50.870;4.606;2023-04-27T05:45:51;101322.72;;;7.16;46.85
68822;BME280;55834;50.870;4.606;2023-04-27T05:48:16;101322.56;;;7.37;46.44
68822;BME280;55834;50.870;4.606;2023-04-27T05:50:42;101325.09;;;7.59;46.63
68822;BME280;55834;50.870;4.606;2023-04-27T05:53:07;101324.16;;;7.67;45.31
68822;BME280;55834;50.870;4.606;2023-04-27T05:55:34;101322.28;;;7.83;45.51
68822;BME280;55834;50.870;4.606;2023-04-27T05:58:00;101324.81;;;7.97;44.70
68822;BME280;55834;50.870;4.606;2023-04-27T06:00:26;101330.94;;;7.98;43.99
68822;BME280;55834;50.870;4.606;2023-04-27T06:02:52;101323.09;;;7.91;44.05
68822;BME280;55834;50.870;4.606;2023-04-27T06:05:17;101318.66;;;7.95;44.38
68822;BME280;55834;50.870;4.606;2023-04-27T06:07:43;101316.81;;;8.05;43.96
68822;BME280;55834;50.870;4.606;2023-04-27T06:10:09;101317.81;;;7.93;43.39
68822;BME280;55834;50.870;4.606;2023-04-27T06:12:37;101324.91;;;7.83;44.46
68822;BME280;55834;50.870;4.606;2023-04-27T06:15:03;101323.00;;;8.01;45.04
68822;BME280;55834;50.870;4.606;2023-04-27T06:17:36;101327.28;;;8.16;44.10
68822;BME280;55834;50.870;4.606;2023-04-27T06:20:03;101317.50;;;8.30;43.69
68822;BME280;55834;50.870;4.606;2023-04-27T06:22:31;101327.34;;;8.11;43.87
68822;BME280;55834;50.870;4.606;2023-04-27T06:24:56;101322.97;;;8.04;42.55
68822;BME280;55834;50.870;4.606;2023-04-27T06:27:22;101332.47;;;8.25;43.95
68822;BME280;55834;50.870;4.606;2023-04-27T06:29:47;101338.63;;;8.25;43.62
68822;BME280;55834;50.870;4.606;2023-04-27T06:32:13;101338.75;;;8.10;43.16
68822;BME280;55834;50.870;4.606;2023-04-27T06:34:38;101338.81;;;7.99;43.64
68822;BME280;55834;50.870;4.606;2023-04-27T06:37:04;101329.91;;;8.19;43.13
68822;BME280;55834;50.870;4.606;2023-04-27T06:39:29;101324.38;;;8.46;42.64
68822;BME280;55834;50.870;4.606;2023-04-27T06:41:56;101325.47;;;8.25;42.25
68822;BME280;55834;50.870;4.606;2023-04-27T06:44:22;101319.88;;;8.57;42.33
68822;BME280;55834;50.870;4.606;2023-04-27T06:46:47;101311.13;;;8.55;41.31
68822;BME280;55834;50.870;4.606;2023-04-27T06:49:13;101320.75;;;8.58;42.09
68822;BME280;55834;50.870;4.606;2023-04-27T06:51:38;101315.44;;;8.59;42.73
68822;BME280;55834;50.870;4.606;2023-04-27T06:54:04;101310.00;;;8.78;42.12
68822;BME280;55834;50.870;4.606;2023-04-27T06:56:32;101314.91;;;9.07;42.00
68822;BME280;55834;50.870;4.606;2023-04-27T06:58:58;101323.38;;;9.29;41.14
68822;BME280;55834;50.870;4.606;2023-04-27T07:01:23;101319.00;;;9.30;41.15
68822;BME280;55834;50.870;4.606;2023-04-27T07:03:49;101313.53;;;9.43;40.69
68822;BME280;55834;50.870;4.606;2023-04-27T07:06:14;101315.16;;;9.54;39.92
68822;BME280;55834;50.870;4.606;2023-04-27T07:08:41;101311.75;;;9.45;39.99
68822;BME280;55834;50.870;4.606;2023-04-27T07:11:07;101309.75;;;9.63;40.56
68822;BME280;55834;50.870;4.606;2023-04-27T07:13:32;101302.94;;;9.49;40.60
68822;BME280;55834;50.870;4.606;2023-04-27T07:15:58;101294.56;;;9.79;40.56
68822;BME280;55834;50.870;4.606;2023-04-27T07:18:23;101297.59;;;10.07;39.66
68822;BME280;55834;50.870;4.606;2023-04-27T07:20:48;101293.97;;;10.12;38.66
68822;BME280;55834;50.870;4.606;2023-04-27T07:23:14;101293.97;;;10.12;39.04
68822;BME280;55834;50.870;4.606;2023-04-27T07:25:40;101301.88;;;10.14;38.78
68822;BME280;55834;50.870;4.606;2023-04-27T07:28:06;101308.25;;;10.02;39.59
68822;BME280;55834;50.870;4.606;2023-04-27T07:30:31;101314.34;;;10.04;38.80
68822;BME280;55834;50.870;4.606;2023-04-27T07:32:58;101307.22;;;10.11;38.98
68822;BME280;55834;50.870;4.606;2023-04-27T07:35:24;101304.06;;;10.38;39.41
68822;BME280;55834;50.870;4.606;2023-04-27T07:37:50;101307.34;;;10.53;38.44
68822;BME280;55834;50.870;4.606;2023-04-27T07:40:16;101301.63;;;10.76;38.42
68822;BME280;55834;50.870;4.606;2023-04-27T07:42:42;101301.63;;;10.76;38.51
68822;BME280;55834;50.870;4.606;2023-04-27T07:45:08;101300.22;;;10.56;38.10
68822;BME280;55834;50.870;4.606;2023-04-27T07:47:34;101302.84;;;10.59;37.37
68822;BME280;55834;50.870;4.606;2023-04-27T07:50:00;101291.63;;;10.90;38.53
68822;BME280;55834;50.870;4.606;2023-04-27T07:52:25;101295.34;;;11.23;37.67
68822;BME280;55834;50.870;4.606;2023-04-27T07:54:50;101294.19;;;11.35;36.47
68822;BME280;55834;50.870;4.606;2023-04-27T07:57:16;101302.56;;;11.15;36.38
68822;BME280;55834;50.870;4.606;2023-04-27T07:59:41;101298.66;;;10.91;36.03
68822;BME280;55834;50.870;4.606;2023-04-27T08:02:07;101292.69;;;10.83;35.94
68822;BME280;55834;50.870;4.606;2023-04-27T08:04:32;101296.72;;;11.01;36.76
68822;BME280;55834;50.870;4.606;2023-04-27T08:06:58;101286.88;;;11.07;36.25
68822;BME280;55834;50.870;4.606;2023-04-27T08:09:24;101301.66;;;10.74;37.62
68822;BME280;55834;50.870;4.606;2023-04-27T08:11:49;101297.38;;;11.11;36.80
68822;BME280;55834;50.870;4.606;2023-04-27T08:14:15;101296.06;;;11.30;36.41
68822;BME280;55834;50.870;4.606;2023-04-27T08:16:41;101299.28;;;11.02;35.43
68822;BME280;55834;50.870;4.606;2023-04-27T08:19:07;101299.88;;;11.17;37.31
68822;BME280;55834;50.870;4.606;2023-04-27T08:21:36;101301.19;;;10.97;35.80
68822;BME280;55834;50.870;4.606;2023-04-27T08:24:03;101294.28;;;11.30;34.95
68822;BME280;55834;50.870;4.606;2023-04-27T08:26:28;101294.97;;;11.39;36.11
68822;BME280;55834;50.870;4.606;2023-04-27T08:28:54;101290.13;;;11.59;34.54
68822;BME280;55834;50.870;4.606;2023-04-27T08:31:24;101286.22;;;11.37;34.79
68822;BME280;55834;50.870;4.606;2023-04-27T08:33:51;101286.47;;;11.65;35.50
68822;BME280;55834;50.870;4.606;2023-04-27T08:36:18;101292.44;;;11.73;35.12
68822;BME280;55834;50.870;4.606;2023-04-27T08:38:43;101288.50;;;11.89;35.24
68822;BME280;55834;50.870;4.606;2023-04-27T08:41:09;101280.13;;;12.06;35.03
68822;BME280;55834;50.870;4.606;2023-04-27T08:43:34;101285.75;;;11.58;34.75
68822;BME280;55834;50.870;4.606;2023-04-27T08:46:00;101286.50;;;10.37;34.67
68822;BME280;55834;50.870;4.606;2023-04-27T08:48:26;101287.88;;;10.58;36.01
68822;BME280;55834;50.870;4.606;2023-04-27T08:50:52;101292.88;;;10.24;37.31
68822;BME280;55834;50.870;4.606;2023-04-27T08:53:21;101290.84;;;10.85;35.84
68822;BME280;55834;50.870;4.606;2023-04-27T08:55:48;101276.44;;;11.40;35.23
68822;BME280;55834;50.870;4.606;2023-04-27T08:58:13;101278.88;;;11.87;34.83
68822;BME280;55834;50.870;4.606;2023-04-27T09:00:40;101280.06;;;12.09;34.80
68822;BME280;55834;50.870;4.606;2023-04-27T09:03:06;101283.53;;;12.11;32.74
68822;BME280;55834;50.870;4.606;2023-04-27T09:05:32;101280.97;;;12.08;33.64
68822;BME280;55834;50.870;4.606;2023-04-27T09:08:04;101280.06;;;12.09;32.96
68822;BME280;55834;50.870;4.606;2023-04-27T09:10:50;101279.09;;;12.12;32.80
68822;BME280;55834;50.870;4.606;2023-04-27T09:13:16;101280.53;;;12.25;32.72
68822;BME280;55834;50.870;4.606;2023-04-27T09:18:14;101273.41;;;12.27;32.52
68822;BME280;55834;50.870;4.606;2023-04-27T09:20:48;101263.88;;;12.22;30.97
68822;BME280;55834;50.870;4.606;2023-04-27T09:23:34;101274.13;;;12.34;29.53
68822;BME280;55834;50.870;4.606;2023-04-27T09:26:18;101271.13;;;12.46;31.52
68822;BME280;55834;50.870;4.606;2023-04-27T09:28:47;101269.75;;;12.66;30.95
68822;BME280;55834;50.870;4.606;2023-04-27T09:31:13;101266.81;;;12.75;31.31
68822;BME280;55834;50.870;4.606;2023-04-27T09:33:39;101271.56;;;12.93;31.23
68822;BME280;55834;50.870;4.606;2023-04-27T09:36:05;101273.34;;;12.93;30.94
68822;BME280;55834;50.870;4.606;2023-04-27T09:38:31;101268.91;;;12.63;30.62
68822;BME280;55834;50.870;4.606;2023-04-27T09:40:58;101271.66;;;12.90;30.98
68822;BME280;55834;50.870;4.606;2023-04-27T09:43:24;101272.88;;;13.08;31.36
68822;BME280;55834;50.870;4.606;2023-04-27T09:45:52;101273.69;;;13.12;30.33
68822;BME280;55834;50.870;4.606;2023-04-27T09:48:20;101270.75;;;12.91;30.25
68822;BME280;55834;50.870;4.606;2023-04-27T09:50:47;101269.16;;;13.15;31.01
68822;BME280;55834;50.870;4.606;2023-04-27T09:53:16;101266.63;;;12.81;32.29
68822;BME280;55834;50.870;4.606;2023-04-27T09:56:02;101280.63;;;13.16;31.34
68822;BME280;55834;50.870;4.606;2023-04-27T09:58:55;101266.88;;;13.31;31.01
68822;BME280;55834;50.870;4.606;2023-04-27T10:01:39;101265.59;;;13.44;31.70
68822;BME280;55834;50.870;4.606;2023-04-27T10:07:03;101267.88;;;12.36;30.42
68822;BME280;55834;50.870;4.606;2023-04-27T10:09:49;101260.94;;;12.95;30.54
68822;BME280;55834;50.870;4.606;2023-04-27T10:12:25;101251.13;;;12.67;29.06
68822;BME280;55834;50.870;4.606;2023-04-27T10:14:53;101247.22;;;12.80;29.46
68822;BME280;55834;50.870;4.606;2023-04-27T10:19:59;101242.09;;;12.74;30.54
68822;BME280;55834;50.870;4.606;2023-04-27T10:22:47;101235.16;;;13.00;29.87
68822;BME280;55834;50.870;4.606;2023-04-27T10:25:37;101235.47;;;13.45;29.07
68822;BME280;55834;50.870;4.606;2023-04-27T10:28:03;101237.03;;;13.52;29.70
68822;BME280;55834;50.870;4.606;2023-04-27T10:30:36;101232.50;;;13.83;29.24
68822;BME280;55834;50.870;4.606;2023-04-27T10:33:08;101240.78;;;13.73;29.24
68822;BME280;55834;50.870;4.606;2023-04-27T10:35:37;101229.75;;;13.86;29.78
68822;BME280;55834;50.870;4.606;2023-04-27T10:38:20;101228.63;;;13.93;28.22
68822;BME280;55834;50.870;4.606;2023-04-27T10:40:56;101229.91;;;14.06;28.24
68822;BME280;55834;50.870;4.606;2023-04-27T10:43:25;101220.59;;;13.94;28.15
68822;BME280;55834;50.870;4.606;2023-04-27T10:45:51;101218.53;;;14.28;29.29
68822;BME280;55834;50.870;4.606;2023-04-27T10:48:17;101213.75;;;14.12;27.73
68822;BME280;55834;50.870;4.606;2023-04-27T10:50:43;101209.59;;;13.53;29.43
68822;BME280;55834;50.870;4.606;2023-04-27T10:53:09;101211.34;;;13.81;29.48
68822;BME280;55834;50.870;4.606;2023-04-27T10:55:35;101197.06;;;14.34;28.75
68822;BME280;55834;50.870;4.606;2023-04-27T10:58:02;101205.78;;;14.62;28.67
68822;BME280;55834;50.870;4.606;2023-04-27T11:00:31;101206.06;;;13.26;30.24
68822;BME280;55834;50.870;4.606;2023-04-27T11:03:08;101198.81;;;13.85;26.81
68822;BME280;55834;50.870;4.606;2023-04-27T11:05:35;101201.53;;;14.08;27.78
68822;BME280;55834;50.870;4.606;2023-04-27T11:08:08;101194.78;;;14.23;27.66
68822;BME280;55834;50.870;4.606;2023-04-27T11:10:38;101190.34;;;14.49;27.18
68822;BME280;55834;50.870;4.606;2023-04-27T11:13:11;101197.69;;;14.65;27.72
68822;BME280;55834;50.870;4.606;2023-04-27T11:15:43;101188.22;;;14.82;26.99
68822;BME280;55834;50.870;4.606;2023-04-27T11:18:09;101196.94;;;14.37;26.82
68822;BME280;55834;50.870;4.606;2023-04-27T11:20:41;101195.16;;;14.37;25.53
68822;BME280;55834;50.870;4.606;2023-04-27T11:23:08;101197.03;;;14.82;27.13
68822;BME280;55834;50.870;4.606;2023-04-27T11:25:36;101200.94;;;15.18;27.91
68822;BME280;55834;50.870;4.606;2023-04-27T11:28:01;101201.31;;;15.30;25.78
68822;BME280;55834;50.870;4.606;2023-04-27T11:30:27;101190.03;;;15.02;25.90
68822;BME280;55834;50.870;4.606;2023-04-27T11:32:52;101194.38;;;15.04;26.18
68822;BME280;55834;50.870;4.606;2023-04-27T11:35:17;101189.75;;;15.09;25.64
68822;BME280;55834;50.870;4.606;2023-04-27T11:37:43;101197.94;;;14.81;25.64
68822;BME280;55834;50.870;4.606;2023-04-27T11:40:09;101183.88;;;15.01;26.48
68822;BME280;55834;50.870;4.606;2023-04-27T11:42:38;101176.47;;;15.31;26.98
68822;BME280;55834;50.870;4.606;2023-04-27T11:45:10;101174.59;;;15.33;26.69
68822;BME280;55834;50.870;4.606;2023-04-27T11:47:35;101179.13;;;15.31;25.27
68822;BME280;55834;50.870;4.606;2023-04-27T11:50:04;101177.78;;;13.25;26.64
68822;BME280;55834;50.870;4.606;2023-04-27T11:52:35;101174.41;;;14.23;28.93
68822;BME280;55834;50.870;4.606;2023-04-27T11:55:01;101171.25;;;14.37;27.62
68822;BME280;55834;50.870;4.606;2023-04-27T11:57:32;101176.06;;;14.75;26.77
68822;BME280;55834;50.870;4.606;2023-04-27T12:00:00;101164.56;;;15.18;28.24
68822;BME280;55834;50.870;4.606;2023-04-27T12:02:27;101161.34;;;15.10;27.66
68822;BME280;55834;50.870;4.606;2023-04-27T12:04:53;101156.97;;;15.09;28.25
68822;BME280;55834;50.870;4.606;2023-04-27T12:07:19;101148.44;;;15.45;26.55
68822;BME280;55834;50.870;4.606;2023-04-27T12:09:44;101157.53;;;15.60;26.63
68822;BME280;55834;50.870;4.606;2023-04-27T12:12:10;101150.91;;;15.70;25.27
68822;BME280;55834;50.870;4.606;2023-04-27T12:14:37;101155.38;;;15.69;25.76
68822;BME280;55834;50.870;4.606;2023-04-27T12:17:02;101152.16;;;15.82;26.81
68822;BME280;55834;50.870;4.606;2023-04-27T12:19:28;101139.97;;;15.13;26.55
68822;BME280;55834;50.870;4.606;2023-04-27T12:21:56;101143.06;;;15.46;26.09
68822;BME280;55834;50.870;4.606;2023-04-27T12:24:22;101148.56;;;14.98;25.69
68822;BME280;55834;50.870;4.606;2023-04-27T12:26:47;101152.88;;;15.22;26.92
68822;BME280;55834;50.870;4.606;2023-04-27T12:29:13;101155.06;;;14.43;25.21
68822;BME280;55834;50.870;4.606;2023-04-27T12:31:39;101154.72;;;14.54;25.29
68822;BME280;55834;50.870;4.606;2023-04-27T12:34:04;101154.28;;;14.41;25.09
68822;BME280;55834;50.870;4.606;2023-04-27T12:36:30;101142.13;;;14.59;25.85
68822;BME280;55834;50.870;4.606;2023-04-27T12:39:12;101147.69;;;13.53;25.65
68822;BME280;55834;50.870;4.606;2023-04-27T12:41:38;101126.91;;;13.14;27.28
68822;BME280;55834;50.870;4.606;2023-04-27T12:44:04;101137.72;;;11.19;30.91
68822;BME280;55834;50.870;4.606;2023-04-27T12:46:29;101133.56;;;12.99;29.57
68822;BME280;55834;50.870;4.606;2023-04-27T12:48:55;101121.97;;;12.16;29.32
68822;BME280;55834;50.870;4.606;2023-04-27T12:51:21;101137.00;;;10.75;30.20
68822;BME280;55834;50.870;4.606;2023-04-27T12:53:47;101117.38;;;12.21;27.61
68822;BME280;55834;50.870;4.606;2023-04-27T12:56:12;101115.84;;;12.73;27.28
68822;BME280;55834;50.870;4.606;2023-04-27T12:58:38;101116.34;;;13.39;27.66
68822;BME280;55834;50.870;4.606;2023-04-27T13:01:06;101125.28;;;14.12;27.20